sensor_id;sensor_type;location;lat;lon;timestamp;pressure;altitude;pressure_sealevel;temperature;humidity
31096;BME280;17749;51.962;8.560;2022-11-15T06:00:38;99407.78;;;9.99;100.00
31096;BME280;17749;51.962;8.560;2022-11-15T06:03:23;99404.19;;;10.00;100.00
31096;BME280;17749;51.962;8.560;2022-11-15T06:06:10;99412.09;;;10.01;100.00
31096;BME280;17749;51.962;8.560;2022-11-15T06:09:08;99415.56;;;10.03;100.00
31096;BME280;17749;51.962;8.560;2022-11-15T06:12:00;99404.03;;;10.03;100.00
31096;BME280;17749;51.962;8.560;2022-11-15T06:14:57;99402.16;;;10.05;100.00
31096;BME280;17749;51.962;8.560;2022-11-15T06:17:44;99406.47;;;10.07;100.00
31096;BME280;17749;51.962;8.560;2022-11-15T06:20:36;99395.81;;;10.07;100.00
31096;BME280;17749;51.962;8.560;2022-11-15T06:23:22;99408.19;;;10.08;100.00
31096;BME280;17749;51.962;8.560;2022-11-15T06:26:17;99405.47;;;10.10;100.00
31096;BME280;17749;51.962;8.560;2022-11-15T06:29:15;99401.84;;;10.11;100.00
31096;BME280;17749;51.962;8.560;2022-11-15T06:32:02;99408.91;;;10.12;100.00
31096;BME280;17749;51.962;8.560;2022-11-15T06:34:58;99409.69;;;10.14;100.00
31096;BME280;17749;51.962;8.560;2022-11-15T06:38:16;99414.13;;;10.14;100.00
31096;BME280;17749;51.962;8.560;2022-11-15T06:41:04;99419.34;;;10.17;100.00
31096;BME280;17749;51.962;8.560;2022-11-15T06:47:30;99423.53;;;10.21;100.00
31096;BME280;17749;51.962;8.560;2022-11-15T06:50:30;99429.66;;;10.23;100.00
31096;BME280;17749;51.962;8.560;2022-11-15T06:53:22;99423.38;;;10.24;100.00
31096;BME280;17749;51.962;8.560;2022-11-15T07:00:42;99425.00;;;10.28;100.00
31096;BME280;17749;51.962;8.560;2022-11-15T07:08:05;99433.69;;;10.31;100.00
31096;BME280;17749;51.962;8.560;2022-11-15T07:10:56;99441.50;;;10.35;100.00
31096;BME280;17749;51.962;8.560;2022-11-15T07:14:20;99432.50;;;10.37;100.00
31096;BME280;17749;51.962;8.560;2022-11-15T07:21:19;99445.53;;;10.43;100.00
31096;BME280;17749;51.962;8.560;2022-11-15T07:24:12;99449.00;;;10.45;100.00
31096;BME280;17749;51.962;8.560;2022-11-15T07:27:00;99448.84;;;10.48;100.00
31096;BME280;17749;51.962;8.560;2022-11-15T07:29:46;99451.41;;;10.50;100.00
31096;BME280;17749;51.962;8.560;2022-11-15T07:32:40;99451.25;;;10.53;100.00
31096;BME280;17749;51.962;8.560;2022-11-15T07:35:34;99454.69;;;10.55;100.00
31096;BME280;17749;51.962;8.560;2022-11-15T07:42:09;99452.75;;;10.59;100.00
31096;BME280;17749;51.962;8.560;2022-11-15T07:45:39;99448.19;;;10.61;100.00
31096;BME280;17749;51.962;8.560;2022-11-15T07:48:55;99451.66;;;10.63;100.00
31096;BME280;17749;51.962;8.560;2022-11-15T07:52:04;99450.63;;;10.65;100.00
31096;BME280;17749;51.962;8.560;2022-11-15T07:55:03;99462.00;;;10.69;100.00
31096;BME280;17749;51.962;8.560;2022-11-15T07:58:21;99456.69;;;10.69;100.00
31096;BME280;17749;51.962;8.560;2022-11-15T08:01:15;99452.13;;;10.71;100.00
31096;BME280;17749;51.962;8.560;2022-11-15T08:08:18;99454.50;;;10.77;100.00
31096;BME280;17749;51.962;8.560;2022-11-15T08:11:32;99458.78;;;10.80;100.00
31096;BME280;17749;51.962;8.560;2022-11-15T08:14:27;99455.00;;;10.84;100.00
31096;BME280;17749;51.962;8.560;2022-11-15T08:17:15;99449.53;;;10.87;100.00
31096;BME280;17749;51.962;8.560;2022-11-15T08:20:10;99456.44;;;10.91;100.00
31096;BME280;17749;51.962;8.560;2022-11-15T08:26:39;99447.88;;;11.02;100.00
31096;BME280;17749;51.962;8.560;2022-11-15T08:33:00;99446.38;;;11.13;100.00
31096;BME280;17749;51.962;8.560;2022-11-15T08:35:45;99445.09;;;11.21;100.00
31096;BME280;17749;51.962;8.560;2022-11-15T08:38:31;99448.47;;;11.24;100.00
31096;BME280;17749;51.962;8.560;2022-11-15T08:41:30;99444.53;;;11.31;100.00
31096;BME280;17749;51.962;8.560;2022-11-15T08:44:16;99445.06;;;11.38;100.00
31096;BME280;17749;51.962;8.560;2022-11-15T08:47:01;99438.53;;;11.44;100.00
31096;BME280;17749;51.962;8.560;2022-11-15T08:49:47;99440.88;;;11.50;100.00
31096;BME280;17749;51.962;8.560;2022-11-15T08:52:32;99437.88;;;11.56;100.00
31096;BME280;17749;51.962;8.560;2022-11-15T08:55:18;99437.53;;;11.62;100.00
31096;BME280;17749;51.962;8.560;2022-11-15T08:58:09;99438.13;;;11.67;100.00
31096;BME280;17749;51.962;8.560;2022-11-15T09:00:54;99444.09;;;11.72;100.00
31096;BME280;17749;51.962;8.560;2022-11-15T09:03:40;99435.84;;;11.77;100.00
31096;BME280;17749;51.962;8.560;2022-11-15T09:06:26;99430.31;;;11.80;100.00
31096;BME280;17749;51.962;8.560;2022-11-15T09:09:11;99429.19;;;11.84;100.00
31096;BME280;17749;51.962;8.560;2022-11-15T09:11:57;99432.59;;;11.88;100.00
31096;BME280;17749;51.962;8.560;2022-11-15T09:14:46;99425.38;;;11.90;100.00
31096;BME280;17749;51.962;8.560;2022-11-15T09:17:32;99425.19;;;11.93;100.00
31096;BME280;17749;51.962;8.560;2022-11-15T09:20:17;99430.44;;;11.94;100.00
31096;BME280;17749;51.962;8.560;2022-11-15T09:23:04;99428.47;;;11.98;100.00
31096;BME280;17749;51.962;8.560;2022-11-15T09:25:50;99422.09;;;12.00;100.00
31096;BME280;17749;51.962;8.560;2022-11-15T09:28:36;99435.16;;;12.05;100.00
31096;BME280;17749;51.962;8.560;2022-11-15T09:31:23;99426.03;;;12.09;100.00
31096;BME280;17749;51.962;8.560;2022-11-15T09:34:12;99426.72;;;12.13;100.00
31096;BME280;17749;51.962;8.560;2022-11-15T09:36:56;99435.41;;;12.16;100.00
31096;BME280;17749;51.962;8.560;2022-11-15T09:39:41;99434.47;;;12.17;100.00
31096;BME280;17749;51.962;8.560;2022-11-15T09:45:49;99428.75;;;12.23;100.00
31096;BME280;17749;51.962;8.560;2022-11-15T09:51:30;99429.34;;;12.28;100.00
31096;BME280;17749;51.962;8.560;2022-11-15T09:56:48;99433.59;;;12.33;100.00
31096;BME280;17749;51.962;8.560;2022-11-15T09:59:55;99424.47;;;12.37;100.00
31096;BME280;17749;51.962;8.560;2022-11-15T10:05:55;99425.63;;;12.47;100.00
31096;BME280;17749;51.962;8.560;2022-11-15T10:11:26;99413.03;;;12.49;100.00
31096;BME280;17749;51.962;8.560;2022-11-15T10:14:12;99406.66;;;12.52;100.00
31096;BME280;17749;51.962;8.560;2022-11-15T10:20:19;99395.78;;;12.55;100.00
31096;BME280;17749;51.962;8.560;2022-11-15T10:22:51;99394.75;;;12.57;100.00
31096;BME280;17749;51.962;8.560;2022-11-15T10:25:30;99393.72;;;12.60;100.00
31096;BME280;17749;51.962;8.560;2022-11-15T10:30:40;99382.75;;;12.64;100.00
31096;BME280;17749;51.962;8.560;2022-11-15T10:33:21;99372.72;;;12.68;100.00
31096;BME280;17749;51.962;8.560;2022-11-15T10:44:23;99366.00;;;12.77;100.00
31096;BME280;17749;51.962;8.560;2022-11-15T10:49:25;99350.63;;;12.80;100.00
31096;BME280;17749;51.962;8.560;2022-11-15T10:52:04;99346.91;;;12.83;100.00
31096;BME280;17749;51.962;8.560;2022-11-15T10:54:43;99349.50;;;12.84;100.00
31096;BME280;17749;51.962;8.560;2022-11-15T10:57:16;99338.63;;;12.87;100.00
31096;BME280;17749;51.962;8.560;2022-11-15T10:59:49;99326.88;;;12.90;100.00
31096;BME280;17749;51.962;8.560;2022-11-15T11:04:53;99321.16;;;12.96;100.00
31096;BME280;17749;51.962;8.560;2022-11-15T11:07:26;99319.16;;;13.00;100.00
31096;BME280;17749;51.962;8.560;2022-11-15T11:10:05;99326.13;;;13.02;100.00
31096;BME280;17749;51.962;8.560;2022-11-15T11:13:14;99330.41;;;13.05;100.00
31096;BME280;17749;51.962;8.560;2022-11-15T11:15:45;99324.97;;;13.06;100.00
31096;BME280;17749;51.962;8.560;2022-11-15T11:18:21;99318.47;;;13.10;100.00
31096;BME280;17749;51.962;8.560;2022-11-15T11:20:58;99314.63;;;13.14;100.00
31096;BME280;17749;51.962;8.560;2022-11-15T11:43:20;99288.03;;;13.27;100.00
31096;BME280;17749;51.962;8.560;2022-11-15T11:50:34;99273.00;;;13.25;100.00
31096;BME280;17749;51.962;8.560;2022-11-15T11:55:56;99267.47;;;13.28;100.00
31096;BME280;17749;51.962;8.560;2022-11-15T11:58:44;99256.78;;;13.28;100.00
31096;BME280;17749;51.962;8.560;2022-11-15T12:01:28;99261.06;;;13.30;100.00
31096;BME280;17749;51.962;8.560;2022-11-15T12:06:41;99258.31;;;13.32;100.00
31096;BME280;17749;51.962;8.560;2022-11-15T12:14:43;99238.44;;;13.36;100.00
31096;BME280;17749;51.962;8.560;2022-11-15T12:17:13;99229.56;;;13.35;100.00
31096;BME280;17749;51.962;8.560;2022-11-15T12:19:40;99239.19;;;13.38;100.00
31096;BME280;17749;51.962;8.560;2022-11-15T12:25:00;99227.66;;;13.37;100.00
31096;BME280;17749;51.962;8.560;2022-11-15T12:27:49;99232.03;;;13.38;100.00
31096;BME280;17749;51.962;8.560;2022-11-15T12:33:37;99229.25;;;13.40;100.00
31096;BME280;17749;51.962;8.560;2022-11-15T12:39:05;99220.28;;;13.41;100.00
31096;BME280;17749;51.962;8.560;2022-11-15T12:41:41;99219.41;;;13.41;100.00
31096;BME280;17749;51.962;8.560;2022-11-15T13:02:29;99196.03;;;13.44;100.00
31096;BME280;17749;51.962;8.560;2022-11-15T13:17:44;99184.09;;;13.35;100.00
31096;BME280;17749;51.962;8.560;2022-11-15T13:28:00;99178.50;;;13.26;100.00
31096;BME280;17749;51.962;8.560;2022-11-15T13:30:33;99169.69;;;13.24;100.00
31096;BME280;17749;51.962;8.560;2022-11-15T13:33:08;99159.00;;;13.24;100.00
31096;BME280;17749;51.962;8.560;2022-11-15T13:35:39;99160.06;;;13.21;100.00
31096;BME280;17749;51.962;8.560;2022-11-15T13:38:18;99159.09;;;13.22;100.00
31096;BME280;17749;51.962;8.560;2022-11-15T13:40:46;99161.69;;;13.24;100.00
31096;BME280;17749;51.962;8.560;2022-11-15T13:43:36;99162.63;;;13.23;100.00
31096;BME280;17749;51.962;8.560;2022-11-15T13:46:11;99166.28;;;13.22;100.00
31096;BME280;17749;51.962;8.560;2022-11-15T13:48:43;99169.91;;;13.21;100.00
31096;BME280;17749;51.962;8.560;2022-11-15T13:51:15;99154.72;;;13.21;100.00
31096;BME280;17749;51.962;8.560;2022-11-15T13:53:47;99154.59;;;13.23;100.00
31096;BME280;17749;51.962;8.560;2022-11-15T13:56:16;99146.59;;;13.23;100.00
31096;BME280;17749;51.962;8.560;2022-11-15T13:58:45;99144.88;;;13.22;100.00
31096;BME280;17749;51.962;8.560;2022-11-15T14:01:16;99150.22;;;13.22;100.00
31096;BME280;17749;51.962;8.560;2022-11-15T14:03:53;99151.19;;;13.21;100.00
31096;BME280;17749;51.962;8.560;2022-11-15T14:06:23;99150.44;;;13.19;100.00
31096;BME280;17749;51.962;8.560;2022-11-15T14:11:29;99143.34;;;13.18;100.00
31096;BME280;17749;51.962;8.560;2022-11-15T14:16:36;99142.81;;;13.12;100.00
31096;BME280;17749;51.962;8.560;2022-11-15T14:19:04;99138.44;;;13.11;100.00
31096;BME280;17749;51.962;8.560;2022-11-15T14:21:32;99132.22;;;13.11;100.00
31096;BME280;17749;51.962;8.560;2022-11-15T14:24:20;99138.63;;;13.08;100.00
31096;BME280;17749;51.962;8.560;2022-11-15T14:26:47;99134.25;;;13.07;100.00
31096;BME280;17749;51.962;8.560;2022-11-15T14:29:28;99132.53;;;13.06;100.00
31096;BME280;17749;51.962;8.560;2022-11-15T14:32:13;99134.44;;;13.04;100.00
31096;BME280;17749;51.962;8.560;2022-11-15T14:34:41;99127.38;;;13.03;100.00
31096;BME280;17749;51.962;8.560;2022-11-15T14:37:18;99132.19;;;12.98;100.00
31096;BME280;17749;51.962;8.560;2022-11-15T14:39:46;99125.13;;;12.97;100.00
31096;BME280;17749;51.962;8.560;2022-11-15T14:42:12;99119.97;;;12.94;100.00
31096;BME280;17749;51.962;8.560;2022-11-15T14:44:39;99114.81;;;12.91;100.00
31096;BME280;17749;51.962;8.560;2022-11-15T14:47:11;99119.53;;;12.87;100.00
31096;BME280;17749;51.962;8.560;2022-11-15T14:49:38;99120.56;;;12.85;100.00
31096;BME280;17749;51.962;8.560;2022-11-15T14:52:23;99114.75;;;12.78;100.00
31096;BME280;17749;51.962;8.560;2022-11-15T14:54:58;99114.09;;;12.75;100.00
31096;BME280;17749;51.962;8.560;2022-11-15T14:57:25;99107.25;;;12.70;100.00
31096;BME280;17749;51.962;8.560;2022-11-15T14:59:52;99113.84;;;12.65;100.00
31096;BME280;17749;51.962;8.560;2022-11-15T15:02:22;99111.50;;;12.60;100.00
31096;BME280;17749;51.962;8.560;2022-11-15T15:04:49;99097.56;;;12.55;100.00
31096;BME280;17749;51.962;8.560;2022-11-15T15:07:17;99090.78;;;12.49;100.00
31096;BME280;17749;51.962;8.560;2022-11-15T15:09:44;99098.16;;;12.46;100.00
31096;BME280;17749;51.962;8.560;2022-11-15T15:12:22;99093.97;;;12.42;100.00
31096;BME280;17749;51.962;8.560;2022-11-15T15:14:50;99092.44;;;12.38;100.00
31096;BME280;17749;51.962;8.560;2022-11-15T15:17:17;99090.91;;;12.34;100.00
31096;BME280;17749;51.962;8.560;2022-11-15T15:19:44;99087.59;;;12.30;100.00
31096;BME280;17749;51.962;8.560;2022-11-15T15:22:14;99086.06;;;12.26;100.00
31096;BME280;17749;51.962;8.560;2022-11-15T15:24:43;99085.31;;;12.24;100.00
31096;BME280;17749;51.962;8.560;2022-11-15T15:27:10;99089.03;;;12.21;100.00
31096;BME280;17749;51.962;8.560;2022-11-15T15:32:32;99084.19;;;12.14;100.00
31096;BME280;17749;51.962;8.560;2022-11-15T15:34:59;99078.91;;;12.12;100.00
31096;BME280;17749;51.962;8.560;2022-11-15T15:37:26;99084.47;;;12.09;100.00
31096;BME280;17749;51.962;8.560;2022-11-15T15:39:55;99078.34;;;12.07;100.00
31096;BME280;17749;51.962;8.560;2022-11-15T15:42:22;99072.25;;;12.05;100.00
31096;BME280;17749;51.962;8.560;2022-11-15T15:44:50;99070.53;;;12.04;100.00
31096;BME280;17749;51.962;8.560;2022-11-15T15:47:22;99064.44;;;12.02;100.00
31096;BME280;17749;51.962;8.560;2022-11-15T15:49:50;99061.78;;;12.02;100.00
31096;BME280;17749;51.962;8.560;2022-11-15T15:52:17;99060.06;;;12.01;100.00
31096;BME280;17749;51.962;8.560;2022-11-15T15:54:44;99058.38;;;12.00;100.00
31096;BME280;17749;51.962;8.560;2022-11-15T15:57:13;99047.84;;;11.97;100.00
31096;BME280;17749;51.962;8.560;2022-11-15T15:59:40;99057.69;;;11.96;100.00
31096;BME280;17749;51.962;8.560;2022-11-15T16:02:13;99055.13;;;11.95;100.00
31096;BME280;17749;51.962;8.560;2022-11-15T16:04:40;99050.72;;;11.94;100.00
31096;BME280;17749;51.962;8.560;2022-11-15T16:07:16;99045.38;;;11.94;100.00
31096;BME280;17749;51.962;8.560;2022-11-15T16:09:44;99039.13;;;11.95;100.00
31096;BME280;17749;51.962;8.560;2022-11-15T16:12:33;99037.38;;;11.94;100.00
31096;BME280;17749;51.962;8.560;2022-11-15T16:15:01;99034.72;;;11.94;100.00
31096;BME280;17749;51.962;8.560;2022-11-15T16:17:31;99040.16;;;11.92;100.00
31096;BME280;17749;51.962;8.560;2022-11-15T16:20:00;99032.25;;;11.91;100.00
31096;BME280;17749;51.962;8.560;2022-11-15T16:22:27;99023.47;;;11.89;100.00
31096;BME280;17749;51.962;8.560;2022-11-15T16:24:56;99019.97;;;11.88;100.00
31096;BME280;17749;51.962;8.560;2022-11-15T16:27:23;99014.72;;;11.87;100.00
31096;BME280;17749;51.962;8.560;2022-11-15T16:29:50;99012.97;;;11.85;100.00
31096;BME280;17749;51.962;8.560;2022-11-15T16:32:17;99000.59;;;11.84;100.00
31096;BME280;17749;51.962;8.560;2022-11-15T16:34:44;98993.53;;;11.83;100.00
31096;BME280;17749;51.962;8.560;2022-11-15T16:37:24;98995.44;;;11.81;100.00
31096;BME280;17749;51.962;8.560;2022-11-15T16:39:51;98988.41;;;11.80;100.00
31096;BME280;17749;51.962;8.560;2022-11-15T16:42:23;98993.84;;;11.79;100.00
31096;BME280;17749;51.962;8.560;2022-11-15T16:44:50;98986.78;;;11.78;100.00
31096;BME280;17749;51.962;8.560;2022-11-15T16:47:26;98986.91;;;11.76;100.00
31096;BME280;17749;51.962;8.560;2022-11-15T16:49:53;98994.13;;;11.74;100.00
31096;BME280;17749;51.962;8.560;2022-11-15T16:52:19;98989.72;;;11.73;100.00
31096;BME280;17749;51.962;8.560;2022-11-15T16:54:47;98991.53;;;11.73;100.00
31096;BME280;17749;51.962;8.560;2022-11-15T16:57:14;98993.44;;;11.71;100.00
31096;BME280;17749;51.962;8.560;2022-11-15T16:59:42;98994.50;;;11.68;100.00
31096;BME280;17749;51.962;8.560;2022-11-15T17:02:12;98991.09;;;11.66;100.00
31096;BME280;17749;51.962;8.560;2022-11-15T17:04:39;98987.66;;;11.64;100.00
31096;BME280;17749;51.962;8.560;2022-11-15T17:07:07;98983.38;;;11.61;100.00
31096;BME280;17749;51.962;8.560;2022-11-15T17:09:34;98984.41;;;11.59;100.00
31096;BME280;17749;51.962;8.560;2022-11-15T17:12:00;98983.56;;;11.58;100.00
31096;BME280;17749;51.962;8.560;2022-11-15T17:14:27;98978.22;;;11.58;100.00
31096;BME280;17749;51.962;8.560;2022-11-15T17:16:54;98979.16;;;11.57;100.00
31096;BME280;17749;51.962;8.560;2022-11-15T17:19:21;98983.63;;;11.57;100.00
31096;BME280;17749;51.962;8.560;2022-11-15T17:21:48;98973.94;;;11.56;100.00
31096;BME280;17749;51.962;8.560;2022-11-15T17:24:16;98973.94;;;11.56;100.00
31096;BME280;17749;51.962;8.560;2022-11-15T17:26:43;98966.88;;;11.55;100.00
31096;BME280;17749;51.962;8.560;2022-11-15T17:29:10;98969.53;;;11.55;100.00
31096;BME280;17749;51.962;8.560;2022-11-15T17:31:37;98965.19;;;11.54;100.00
31096;BME280;17749;51.962;8.560;2022-11-15T17:34:05;98956.41;;;11.52;100.00
31096;BME280;17749;51.962;8.560;2022-11-15T17:36:32;98954.72;;;11.51;100.00
31096;BME280;17749;51.962;8.560;2022-11-15T17:38:59;98956.53;;;11.50;100.00
31096;BME280;17749;51.962;8.560;2022-11-15T17:41:27;98955.63;;;11.50;100.00
31096;BME280;17749;51.962;8.560;2022-11-15T17:43:58;98950.41;;;11.48;100.00
31096;BME280;17749;51.962;8.560;2022-11-15T17:46:26;98959.34;;;11.47;100.00
31096;BME280;17749;51.962;8.560;2022-11-15T17:48:54;98958.50;;;11.47;100.00
31096;BME280;17749;51.962;8.560;2022-11-15T17:51:22;98951.47;;;11.46;100.00
31096;BME280;17749;51.962;8.560;2022-11-15T17:53:50;98950.63;;;11.45;100.00
31096;BME280;17749;51.962;8.560;2022-11-15T17:56:22;98946.22;;;11.44;100.00
31096;BME280;17749;51.962;8.560;2022-11-15T17:58:51;98948.88;;;11.44;100.00
31096;BME280;17749;51.962;8.560;2022-11-15T18:01:30;98940.88;;;11.44;100.00
31096;BME280;17749;51.962;8.560;2022-11-15T18:03:59;98942.69;;;11.44;100.00
31096;BME280;17749;51.962;8.560;2022-11-15T18:06:29;98935.56;;;11.44;100.00
31096;BME280;17749;51.962;8.560;2022-11-15T18:08:57;98942.69;;;11.44;100.00
31096;BME280;17749;51.962;8.560;2022-11-15T18:11:32;98937.28;;;11.45;100.00
31096;BME280;17749;51.962;8.560;2022-11-15T18:14:02;98931.84;;;11.47;100.00
31096;BME280;17749;51.962;8.560;2022-11-15T18:16:30;98938.91;;;11.48;100.00
31096;BME280;17749;51.962;8.560;2022-11-15T18:18:58;98944.25;;;11.48;100.00
31096;BME280;17749;51.962;8.560;2022-11-15T18:21:28;98935.28;;;11.49;100.00
31096;BME280;17749;51.962;8.560;2022-11-15T18:24:30;98935.28;;;11.49;100.00
31096;BME280;17749;51.962;8.560;2022-11-15T18:26:58;98933.38;;;11.51;100.00
31096;BME280;17749;51.962;8.560;2022-11-15T18:29:25;98939.56;;;11.51;100.00
31096;BME280;17749;51.962;8.560;2022-11-15T18:31:53;98935.09;;;11.52;100.00
31096;BME280;17749;51.962;8.560;2022-11-15T18:34:25;98927.84;;;11.54;100.00
31096;BME280;17749;51.962;8.560;2022-11-15T18:36:58;98921.56;;;11.55;100.00
31096;BME280;17749;51.962;8.560;2022-11-15T18:39:26;98925.94;;;11.56;100.00
31096;BME280;17749;51.962;8.560;2022-11-15T18:41:53;98921.34;;;11.58;100.00
31096;BME280;17749;51.962;8.560;2022-11-15T18:44:20;98925.75;;;11.59;100.00
31096;BME280;17749;51.962;8.560;2022-11-15T18:46:47;98916.78;;;11.60;100.00
31096;BME280;17749;51.962;8.560;2022-11-15T18:49:14;98908.72;;;11.61;100.00
31096;BME280;17749;51.962;8.560;2022-11-15T18:51:42;98908.59;;;11.63;100.00
31096;BME280;17749;51.962;8.560;2022-11-15T18:54:11;98910.31;;;11.64;100.00
31096;BME280;17749;51.962;8.560;2022-11-15T18:56:38;98912.03;;;11.65;100.00
31096;BME280;17749;51.962;8.560;2022-11-15T18:59:05;98900.41;;;11.66;100.00
31096;BME280;17749;51.962;8.560;2022-11-15T19:01:40;98897.63;;;11.68;100.00
31096;BME280;17749;51.962;8.560;2022-11-15T19:04:10;98896.59;;;11.70;100.00
31096;BME280;17749;51.962;8.560;2022-11-15T19:06:40;98901.91;;;11.70;100.00
31096;BME280;17749;51.962;8.560;2022-11-15T19:09:09;98893.00;;;11.71;100.00
31096;BME280;17749;51.962;8.560;2022-11-15T19:11:37;98902.69;;;11.72;100.00
31096;BME280;17749;51.962;8.560;2022-11-15T19:14:13;98900.03;;;11.72;100.00
31096;BME280;17749;51.962;8.560;2022-11-15T19:16:42;98900.03;;;11.72;100.00
31096;BME280;17749;51.962;8.560;2022-11-15T19:19:22;98891.06;;;11.73;100.00
31096;BME280;17749;51.962;8.560;2022-11-15T19:21:50;98889.34;;;11.72;100.00
31096;BME280;17749;51.962;8.560;2022-11-15T19:24:18;98897.28;;;11.74;100.00
31096;BME280;17749;51.962;8.560;2022-11-15T19:26:45;98887.53;;;11.73;100.00
31096;BME280;17749;51.962;8.560;2022-11-15T19:29:12;98883.81;;;11.75;100.00
31096;BME280;17749;51.962;8.560;2022-11-15T19:31:40;98885.56;;;11.76;100.00
31096;BME280;17749;51.962;8.560;2022-11-15T19:34:07;98876.56;;;11.77;100.00
31096;BME280;17749;51.962;8.560;2022-11-15T19:36:37;98878.28;;;11.78;100.00
31096;BME280;17749;51.962;8.560;2022-11-15T19:39:06;98883.63;;;11.78;100.00
31096;BME280;17749;51.962;8.560;2022-11-15T19:41:36;98885.34;;;11.79;100.00
31096;BME280;17749;51.962;8.560;2022-11-15T19:44:04;98878.28;;;11.78;100.00
31096;BME280;17749;51.962;8.560;2022-11-15T19:46:32;98891.63;;;11.78;100.00
31096;BME280;17749;51.962;8.560;2022-11-15T19:48:59;98899.63;;;11.78;100.00
31096;BME280;17749;51.962;8.560;2022-11-15T19:51:27;98902.28;;;11.78;100.00
31096;BME280;17749;51.962;8.560;2022-11-15T19:53:59;98884.50;;;11.79;100.00
31096;BME280;17749;51.962;8.560;2022-11-15T19:56:29;98880.00;;;11.79;100.00
31096;BME280;17749;51.962;8.560;2022-11-15T19:58:56;98878.28;;;11.78;100.00
31096;BME280;17749;51.962;8.560;2022-11-15T20:01:28;98872.94;;;11.78;100.00
31096;BME280;17749;51.962;8.560;2022-11-15T20:03:57;98866.75;;;11.78;100.00
31096;BME280;17749;51.962;8.560;2022-11-15T20:06:33;98872.22;;;11.76;100.00
31096;BME280;17749;51.962;8.560;2022-11-15T20:09:00;98873.16;;;11.75;100.00
31096;BME280;17749;51.962;8.560;2022-11-15T20:11:27;98874.97;;;11.75;100.00
31096;BME280;17749;51.962;8.560;2022-11-15T20:13:58;98873.34;;;11.72;100.00
31096;BME280;17749;51.962;8.560;2022-11-15T20:16:28;98868.97;;;11.71;100.00
31096;BME280;17749;51.962;8.560;2022-11-15T20:18:55;98873.56;;;11.69;100.00
31096;BME280;17749;51.962;8.560;2022-11-15T20:21:22;98859.47;;;11.67;100.00
31096;BME280;17749;51.962;8.560;2022-11-15T20:23:50;98856.88;;;11.66;100.00
31096;BME280;17749;51.962;8.560;2022-11-15T20:26:18;98856.03;;;11.65;100.00
31096;BME280;17749;51.962;8.560;2022-11-15T20:28:46;98854.31;;;11.64;100.00
31096;BME280;17749;51.962;8.560;2022-11-15T20:31:15;98849.19;;;11.61;100.00
31096;BME280;17749;51.962;8.560;2022-11-15T20:33:42;98858.13;;;11.60;100.00
31096;BME280;17749;51.962;8.560;2022-11-15T20:36:11;98860.03;;;11.58;100.00
31096;BME280;17749;51.962;8.560;2022-11-15T20:38:38;98850.34;;;11.57;100.00
31096;BME280;17749;51.962;8.560;2022-11-15T20:41:05;98854.91;;;11.55;100.00
31096;BME280;17749;51.962;8.560;2022-11-15T20:43:32;98859.38;;;11.54;100.00
31096;BME280;17749;51.962;8.560;2022-11-15T20:45:59;98849.78;;;11.52;100.00
31096;BME280;17749;51.962;8.560;2022-11-15T20:48:26;98844.44;;;11.52;100.00
31096;BME280;17749;51.962;8.560;2022-11-15T20:51:06;98839.22;;;11.50;100.00
31096;BME280;17749;51.962;8.560;2022-11-15T20:53:33;98847.22;;;11.50;100.00
31096;BME280;17749;51.962;8.560;2022-11-15T20:56:05;98840.16;;;11.49;100.00
31096;BME280;17749;51.962;8.560;2022-11-15T20:58:34;98833.97;;;11.49;100.00
31096;BME280;17749;51.962;8.560;2022-11-15T21:01:05;98833.97;;;11.49;100.00
31096;BME280;17749;51.962;8.560;2022-11-15T21:03:33;98835.88;;;11.47;100.00
31096;BME280;17749;51.962;8.560;2022-11-15T21:06:01;98827.88;;;11.47;100.00
31096;BME280;17749;51.962;8.560;2022-11-15T21:08:29;98824.38;;;11.46;100.00
31096;BME280;17749;51.962;8.560;2022-11-15T21:11:19;98820.84;;;11.46;100.00
31096;BME280;17749;51.962;8.560;2022-11-15T21:14:05;98818.19;;;11.46;100.00
31096;BME280;17749;51.962;8.560;2022-11-15T21:16:36;98817.41;;;11.44;100.00
31096;BME280;17749;51.962;8.560;2022-11-15T21:19:04;98822.00;;;11.41;100.00
31096;BME280;17749;51.962;8.560;2022-11-15T21:21:32;98811.31;;;11.41;100.00
31096;BME280;17749;51.962;8.560;2022-11-15T21:24:02;98811.31;;;11.41;100.00
31096;BME280;17749;51.962;8.560;2022-11-15T21:26:29;98806.13;;;11.40;100.00
31096;BME280;17749;51.962;8.560;2022-11-15T21:28:56;98809.63;;;11.40;100.00
